sensor_id;sensor_type;location;lat;lon;timestamp;temperature;humidity
27026;DHT22;14565;48.626;8.978;2022-08-19T00:00:20;19.60;99.90
27026;DHT22;14565;48.626;8.978;2022-08-19T00:02:46;19.60;99.90
27026;DHT22;14565;48.626;8.978;2022-08-19T00:05:15;19.60;99.90
27026;DHT22;14565;48.626;8.978;2022-08-19T00:07:43;19.70;99.90
27026;DHT22;14565;48.626;8.978;2022-08-19T00:10:10;19.60;99.90
27026;DHT22;14565;48.626;8.978;2022-08-19T00:12:37;19.50;99.90
27026;DHT22;14565;48.626;8.978;2022-08-19T00:15:07;19.60;99.90
27026;DHT22;14565;48.626;8.978;2022-08-19T00:17:33;19.60;99.90
27026;DHT22;14565;48.626;8.978;2022-08-19T00:19:59;19.60;99.90
27026;DHT22;14565;48.626;8.978;2022-08-19T00:22:24;19.70;99.90
27026;DHT22;14565;48.626;8.978;2022-08-19T00:24:52;19.60;99.90
27026;DHT22;14565;48.626;8.978;2022-08-19T00:27:18;19.60;99.90
27026;DHT22;14565;48.626;8.978;2022-08-19T00:29:43;19.60;99.90
27026;DHT22;14565;48.626;8.978;2022-08-19T00:32:09;19.50;99.90
27026;DHT22;14565;48.626;8.978;2022-08-19T00:34:36;19.60;99.90
27026;DHT22;14565;48.626;8.978;2022-08-19T00:37:01;19.40;99.90
27026;DHT22;14565;48.626;8.978;2022-08-19T00:39:27;19.40;99.90
27026;DHT22;14565;48.626;8.978;2022-08-19T00:41:53;19.40;99.90
27026;DHT22;14565;48.626;8.978;2022-08-19T00:44:22;19.40;99.90
27026;DHT22;14565;48.626;8.978;2022-08-19T00:46:50;19.40;99.90
27026;DHT22;14565;48.626;8.978;2022-08-19T00:49:20;19.40;99.90
27026;DHT22;14565;48.626;8.978;2022-08-19T00:51:51;19.40;99.90
27026;DHT22;14565;48.626;8.978;2022-08-19T00:54:19;19.40;99.90
27026;DHT22;14565;48.626;8.978;2022-08-19T00:56:45;19.40;99.90
27026;DHT22;14565;48.626;8.978;2022-08-19T00:59:11;19.40;99.90
27026;DHT22;14565;48.626;8.978;2022-08-19T01:01:39;19.40;99.90
27026;DHT22;14565;48.626;8.978;2022-08-19T01:04:05;19.30;99.90
27026;DHT22;14565;48.626;8.978;2022-08-19T01:06:32;19.20;99.90
27026;DHT22;14565;48.626;8.978;2022-08-19T01:08:59;19.00;99.90
27026;DHT22;14565;48.626;8.978;2022-08-19T01:11:27;19.00;99.90
27026;DHT22;14565;48.626;8.978;2022-08-19T01:13:53;18.90;99.90
27026;DHT22;14565;48.626;8.978;2022-08-19T01:16:21;18.90;99.90
27026;DHT22;14565;48.626;8.978;2022-08-19T01:18:48;18.80;99.90
27026;DHT22;14565;48.626;8.978;2022-08-19T01:21:37;18.80;99.90
27026;DHT22;14565;48.626;8.978;2022-08-19T01:24:04;18.80;99.90
27026;DHT22;14565;48.626;8.978;2022-08-19T01:26:30;18.80;99.90
27026;DHT22;14565;48.626;8.978;2022-08-19T01:28:58;18.70;99.90
27026;DHT22;14565;48.626;8.978;2022-08-19T01:31:27;18.80;99.90
27026;DHT22;14565;48.626;8.978;2022-08-19T01:33:57;18.80;99.90
27026;DHT22;14565;48.626;8.978;2022-08-19T01:36:30;18.80;99.90
27026;DHT22;14565;48.626;8.978;2022-08-19T01:38:56;18.80;99.90
27026;DHT22;14565;48.626;8.978;2022-08-19T01:41:23;18.70;99.90
27026;DHT22;14565;48.626;8.978;2022-08-19T01:43:51;18.70;99.90
27026;DHT22;14565;48.626;8.978;2022-08-19T01:46:17;18.60;99.90
27026;DHT22;14565;48.626;8.978;2022-08-19T01:48:46;18.60;99.90
27026;DHT22;14565;48.626;8.978;2022-08-19T01:51:13;18.50;99.90
27026;DHT22;14565;48.626;8.978;2022-08-19T01:53:39;18.40;99.90
27026;DHT22;14565;48.626;8.978;2022-08-19T01:56:06;18.30;99.90
27026;DHT22;14565;48.626;8.978;2022-08-19T01:58:36;18.20;99.90
27026;DHT22;14565;48.626;8.978;2022-08-19T02:01:05;18.20;99.90
27026;DHT22;14565;48.626;8.978;2022-08-19T02:03:30;18.20;99.90
27026;DHT22;14565;48.626;8.978;2022-08-19T02:05:59;18.30;99.90
27026;DHT22;14565;48.626;8.978;2022-08-19T02:08:33;18.30;99.90
27026;DHT22;14565;48.626;8.978;2022-08-19T02:10:59;18.20;99.90
27026;DHT22;14565;48.626;8.978;2022-08-19T02:13:27;18.30;99.90
27026;DHT22;14565;48.626;8.978;2022-08-19T02:15:53;18.20;99.90
27026;DHT22;14565;48.626;8.978;2022-08-19T02:18:19;18.30;99.90
27026;DHT22;14565;48.626;8.978;2022-08-19T02:20:45;18.30;99.90
27026;DHT22;14565;48.626;8.978;2022-08-19T02:23:13;18.30;99.90
27026;DHT22;14565;48.626;8.978;2022-08-19T02:25:39;18.30;99.90
27026;DHT22;14565;48.626;8.978;2022-08-19T02:28:05;18.30;99.90
27026;DHT22;14565;48.626;8.978;2022-08-19T02:30:31;18.30;99.90
27026;DHT22;14565;48.626;8.978;2022-08-19T02:32:56;18.30;99.90
27026;DHT22;14565;48.626;8.978;2022-08-19T02:35:23;18.20;99.90
27026;DHT22;14565;48.626;8.978;2022-08-19T02:37:49;18.20;99.90
27026;DHT22;14565;48.626;8.978;2022-08-19T02:40:34;18.20;99.90
27026;DHT22;14565;48.626;8.978;2022-08-19T02:43:01;18.20;99.90
27026;DHT22;14565;48.626;8.978;2022-08-19T02:45:32;18.30;99.90
27026;DHT22;14565;48.626;8.978;2022-08-19T02:47:58;18.30;99.90
27026;DHT22;14565;48.626;8.978;2022-08-19T02:50:24;18.30;99.90
27026;DHT22;14565;48.626;8.978;2022-08-19T02:52:49;18.30;99.90
27026;DHT22;14565;48.626;8.978;2022-08-19T02:55:15;18.30;99.90
27026;DHT22;14565;48.626;8.978;2022-08-19T02:57:41;18.30;99.90
27026;DHT22;14565;48.626;8.978;2022-08-19T03:00:08;18.30;99.90
27026;DHT22;14565;48.626;8.978;2022-08-19T03:02:37;18.40;99.90
27026;DHT22;14565;48.626;8.978;2022-08-19T03:05:03;18.40;99.90
27026;DHT22;14565;48.626;8.978;2022-08-19T03:07:29;18.40;99.90
27026;DHT22;14565;48.626;8.978;2022-08-19T03:09:55;18.30;99.90
27026;DHT22;14565;48.626;8.978;2022-08-19T03:12:21;18.30;99.90
27026;DHT22;14565;48.626;8.978;2022-08-19T03:14:47;18.30;99.90
27026;DHT22;14565;48.626;8.978;2022-08-19T03:17:13;18.20;99.90
27026;DHT22;14565;48.626;8.978;2022-08-19T03:19:39;18.30;99.90
27026;DHT22;14565;48.626;8.978;2022-08-19T03:22:04;18.30;99.90
27026;DHT22;14565;48.626;8.978;2022-08-19T03:24:30;18.30;99.90
27026;DHT22;14565;48.626;8.978;2022-08-19T03:26:57;18.30;99.90
27026;DHT22;14565;48.626;8.978;2022-08-19T03:29:24;18.10;99.90
27026;DHT22;14565;48.626;8.978;2022-08-19T03:31:50;18.20;99.90
27026;DHT22;14565;48.626;8.978;2022-08-19T03:34:24;18.20;99.90
27026;DHT22;14565;48.626;8.978;2022-08-19T03:36:55;18.10;99.90
27026;DHT22;14565;48.626;8.978;2022-08-19T03:39:21;18.10;99.90
27026;DHT22;14565;48.626;8.978;2022-08-19T03:41:48;18.10;99.90
27026;DHT22;14565;48.626;8.978;2022-08-19T03:44:18;18.20;99.90
27026;DHT22;14565;48.626;8.978;2022-08-19T03:46:48;18.20;99.90
27026;DHT22;14565;48.626;8.978;2022-08-19T03:49:15;18.10;99.90
27026;DHT22;14565;48.626;8.978;2022-08-19T03:51:41;18.20;99.90
27026;DHT22;14565;48.626;8.978;2022-08-19T03:54:10;18.20;99.90
27026;DHT22;14565;48.626;8.978;2022-08-19T03:56:37;18.10;99.90
27026;DHT22;14565;48.626;8.978;2022-08-19T03:59:05;18.10;99.90
27026;DHT22;14565;48.626;8.978;2022-08-19T04:01:31;18.10;99.90
27026;DHT22;14565;48.626;8.978;2022-08-19T04:03:58;18.10;99.90
27026;DHT22;14565;48.626;8.978;2022-08-19T04:06:29;18.10;99.90
27026;DHT22;14565;48.626;8.978;2022-08-19T04:08:56;18.10;99.90
27026;DHT22;14565;48.626;8.978;2022-08-19T04:11:27;18.00;99.90
27026;DHT22;14565;48.626;8.978;2022-08-19T04:13:55;18.10;99.90
27026;DHT22;14565;48.626;8.978;2022-08-19T04:16:22;18.00;99.90
27026;DHT22;14565;48.626;8.978;2022-08-19T04:18:49;18.00;99.90
27026;DHT22;14565;48.626;8.978;2022-08-19T04:21:23;18.00;99.90
27026;DHT22;14565;48.626;8.978;2022-08-19T04:23:49;18.00;99.90
27026;DHT22;14565;48.626;8.978;2022-08-19T04:26:16;18.00;99.90
27026;DHT22;14565;48.626;8.978;2022-08-19T04:28:44;18.10;99.90
27026;DHT22;14565;48.626;8.978;2022-08-19T04:31:24;18.10;99.90
27026;DHT22;14565;48.626;8.978;2022-08-19T04:33:54;18.10;99.90
27026;DHT22;14565;48.626;8.978;2022-08-19T04:36:24;18.10;99.90
27026;DHT22;14565;48.626;8.978;2022-08-19T04:38:54;18.10;99.90
27026;DHT22;14565;48.626;8.978;2022-08-19T04:41:20;18.10;99.90
27026;DHT22;14565;48.626;8.978;2022-08-19T04:44:04;18.10;99.90
27026;DHT22;14565;48.626;8.978;2022-08-19T04:46:31;18.10;99.90
27026;DHT22;14565;48.626;8.978;2022-08-19T04:48:57;18.10;99.90
27026;DHT22;14565;48.626;8.978;2022-08-19T04:51:23;18.20;99.90
27026;DHT22;14565;48.626;8.978;2022-08-19T04:53:50;18.20;99.90
27026;DHT22;14565;48.626;8.978;2022-08-19T04:56:17;18.10;99.90
27026;DHT22;14565;48.626;8.978;2022-08-19T04:58:45;18.10;99.90
27026;DHT22;14565;48.626;8.978;2022-08-19T05:01:21;18.10;99.90
27026;DHT22;14565;48.626;8.978;2022-08-19T05:03:47;18.20;99.90
27026;DHT22;14565;48.626;8.978;2022-08-19T05:06:16;18.30;99.90
27026;DHT22;14565;48.626;8.978;2022-08-19T05:08:42;18.30;99.90
27026;DHT22;14565;48.626;8.978;2022-08-19T05:11:18;18.20;99.90
27026;DHT22;14565;48.626;8.978;2022-08-19T05:13:46;18.40;99.90
27026;DHT22;14565;48.626;8.978;2022-08-19T05:16:13;18.40;99.90
27026;DHT22;14565;48.626;8.978;2022-08-19T05:18:39;18.30;99.90
27026;DHT22;14565;48.626;8.978;2022-08-19T05:21:24;18.30;99.90
27026;DHT22;14565;48.626;8.978;2022-08-19T05:24:10;18.30;99.90
27026;DHT22;14565;48.626;8.978;2022-08-19T05:26:38;18.40;99.90
27026;DHT22;14565;48.626;8.978;2022-08-19T05:29:04;18.40;99.90
27026;DHT22;14565;48.626;8.978;2022-08-19T05:31:30;18.40;99.90
27026;DHT22;14565;48.626;8.978;2022-08-19T05:33:56;18.50;99.90
27026;DHT22;14565;48.626;8.978;2022-08-19T05:36:24;18.40;99.90
27026;DHT22;14565;48.626;8.978;2022-08-19T05:38:50;18.40;99.90
27026;DHT22;14565;48.626;8.978;2022-08-19T05:41:18;18.40;99.90
27026;DHT22;14565;48.626;8.978;2022-08-19T05:43:44;18.40;99.90
27026;DHT22;14565;48.626;8.978;2022-08-19T05:46:19;18.40;99.90
27026;DHT22;14565;48.626;8.978;2022-08-19T05:48:45;18.50;99.90
27026;DHT22;14565;48.626;8.978;2022-08-19T05:51:11;18.50;99.90
27026;DHT22;14565;48.626;8.978;2022-08-19T05:53:37;18.40;99.90
27026;DHT22;14565;48.626;8.978;2022-08-19T05:56:11;18.40;99.90
27026;DHT22;14565;48.626;8.978;2022-08-19T05:58:38;18.40;99.90
27026;DHT22;14565;48.626;8.978;2022-08-19T06:01:09;18.50;99.90
27026;DHT22;14565;48.626;8.978;2022-08-19T06:03:36;18.50;99.90
27026;DHT22;14565;48.626;8.978;2022-08-19T06:06:03;18.50;99.90
27026;DHT22;14565;48.626;8.978;2022-08-19T06:08:29;18.40;99.90
27026;DHT22;14565;48.626;8.978;2022-08-19T06:10:55;18.50;99.90
27026;DHT22;14565;48.626;8.978;2022-08-19T06:13:22;18.40;99.90
27026;DHT22;14565;48.626;8.978;2022-08-19T06:15:48;18.50;99.90
27026;DHT22;14565;48.626;8.978;2022-08-19T06:18:14;18.50;99.90
27026;DHT22;14565;48.626;8.978;2022-08-19T06:20:41;18.50;99.90
27026;DHT22;14565;48.626;8.978;2022-08-19T06:23:06;18.60;99.90
27026;DHT22;14565;48.626;8.978;2022-08-19T06:25:33;18.70;99.90
27026;DHT22;14565;48.626;8.978;2022-08-19T06:27:59;18.60;99.90
27026;DHT22;14565;48.626;8.978;2022-08-19T06:30:25;18.50;99.90
27026;DHT22;14565;48.626;8.978;2022-08-19T06:32:50;18.50;99.90
27026;DHT22;14565;48.626;8.978;2022-08-19T06:35:16;18.50;99.90
27026;DHT22;14565;48.626;8.978;2022-08-19T06:37:42;18.50;99.90
27026;DHT22;14565;48.626;8.978;2022-08-19T06:40:08;18.50;99.90
27026;DHT22;14565;48.626;8.978;2022-08-19T06:42:36;18.60;99.90
27026;DHT22;14565;48.626;8.978;2022-08-19T06:45:04;18.70;99.90
27026;DHT22;14565;48.626;8.978;2022-08-19T06:47:30;18.70;99.90
27026;DHT22;14565;48.626;8.978;2022-08-19T06:49:59;18.80;99.90
27026;DHT22;14565;48.626;8.978;2022-08-19T06:52:34;18.70;99.90
27026;DHT22;14565;48.626;8.978;2022-08-19T06:55:01;18.70;99.90
27026;DHT22;14565;48.626;8.978;2022-08-19T06:57:27;18.70;99.90
27026;DHT22;14565;48.626;8.978;2022-08-19T06:59:56;18.90;99.90
27026;DHT22;14565;48.626;8.978;2022-08-19T07:02:22;18.80;99.90
27026;DHT22;14565;48.626;8.978;2022-08-19T07:04:52;19.00;99.90
27026;DHT22;14565;48.626;8.978;2022-08-19T07:07:18;19.00;99.90
27026;DHT22;14565;48.626;8.978;2022-08-19T07:09:45;19.20;99.90
27026;DHT22;14565;48.626;8.978;2022-08-19T07:12:12;19.20;99.90
27026;DHT22;14565;48.626;8.978;2022-08-19T07:14:41;19.30;99.90
27026;DHT22;14565;48.626;8.978;2022-08-19T07:17:09;19.30;99.90
27026;DHT22;14565;48.626;8.978;2022-08-19T07:19:36;19.40;99.90
27026;DHT22;14565;48.626;8.978;2022-08-19T07:22:04;19.40;99.90
27026;DHT22;14565;48.626;8.978;2022-08-19T07:24:31;19.30;99.90
27026;DHT22;14565;48.626;8.978;2022-08-19T07:27:02;19.50;99.90
27026;DHT22;14565;48.626;8.978;2022-08-19T07:29:31;19.70;99.90
27026;DHT22;14565;48.626;8.978;2022-08-19T07:31:58;19.80;99.90
27026;DHT22;14565;48.626;8.978;2022-08-19T07:34:26;19.70;99.90
27026;DHT22;14565;48.626;8.978;2022-08-19T07:36:53;19.40;99.90
27026;DHT22;14565;48.626;8.978;2022-08-19T07:39:23;19.70;99.90
27026;DHT22;14565;48.626;8.978;2022-08-19T07:41:49;19.50;99.90
27026;DHT22;14565;48.626;8.978;2022-08-19T07:44:16;19.40;99.90
27026;DHT22;14565;48.626;8.978;2022-08-19T07:46:44;19.70;99.90
27026;DHT22;14565;48.626;8.978;2022-08-19T07:49:11;19.70;99.90
27026;DHT22;14565;48.626;8.978;2022-08-19T07:51:43;19.70;99.90
27026;DHT22;14565;48.626;8.978;2022-08-19T07:54:09;19.60;99.90
27026;DHT22;14565;48.626;8.978;2022-08-19T07:56:35;19.50;99.90
27026;DHT22;14565;48.626;8.978;2022-08-19T07:59:00;19.40;99.90
27026;DHT22;14565;48.626;8.978;2022-08-19T08:01:27;19.40;99.90
27026;DHT22;14565;48.626;8.978;2022-08-19T08:03:54;19.40;99.90
27026;DHT22;14565;48.626;8.978;2022-08-19T08:06:40;19.30;99.90
27026;DHT22;14565;48.626;8.978;2022-08-19T08:09:35;19.30;99.90
27026;DHT22;14565;48.626;8.978;2022-08-19T08:12:29;19.30;99.90
27026;DHT22;14565;48.626;8.978;2022-08-19T08:15:10;19.10;99.90
27026;DHT22;14565;48.626;8.978;2022-08-19T08:17:37;19.20;99.90
27026;DHT22;14565;48.626;8.978;2022-08-19T08:20:05;19.20;99.90
27026;DHT22;14565;48.626;8.978;2022-08-19T08:22:32;19.40;99.90
27026;DHT22;14565;48.626;8.978;2022-08-19T08:25:20;19.30;99.90
27026;DHT22;14565;48.626;8.978;2022-08-19T08:27:48;19.30;99.90
27026;DHT22;14565;48.626;8.978;2022-08-19T08:30:23;19.30;99.90
27026;DHT22;14565;48.626;8.978;2022-08-19T08:32:49;19.30;99.90
27026;DHT22;14565;48.626;8.978;2022-08-19T08:35:19;19.20;99.90
27026;DHT22;14565;48.626;8.978;2022-08-19T08:37:46;19.00;99.90
27026;DHT22;14565;48.626;8.978;2022-08-19T08:42:54;18.90;99.90
27026;DHT22;14565;48.626;8.978;2022-08-19T08:45:27;18.80;99.90
27026;DHT22;14565;48.626;8.978;2022-08-19T08:47:56;18.80;99.90
27026;DHT22;14565;48.626;8.978;2022-08-19T08:50:29;18.90;99.90
27026;DHT22;14565;48.626;8.978;2022-08-19T08:52:59;18.80;99.90
27026;DHT22;14565;48.626;8.978;2022-08-19T08:55:27;18.70;99.90
27026;DHT22;14565;48.626;8.978;2022-08-19T08:58:12;18.80;99.90
27026;DHT22;14565;48.626;8.978;2022-08-19T09:00:45;18.80;99.90
27026;DHT22;14565;48.626;8.978;2022-08-19T09:03:31;18.80;99.90
27026;DHT22;14565;48.626;8.978;2022-08-19T09:06:34;18.90;99.90
27026;DHT22;14565;48.626;8.978;2022-08-19T09:09:10;19.10;99.90
27026;DHT22;14565;48.626;8.978;2022-08-19T09:14:49;19.10;99.90
27026;DHT22;14565;48.626;8.978;2022-08-19T09:17:16;19.20;99.90
27026;DHT22;14565;48.626;8.978;2022-08-19T09:19:57;19.40;99.90
27026;DHT22;14565;48.626;8.978;2022-08-19T09:22:24;19.50;99.90
27026;DHT22;14565;48.626;8.978;2022-08-19T09:24:50;19.50;99.90
27026;DHT22;14565;48.626;8.978;2022-08-19T09:27:20;19.60;99.90
27026;DHT22;14565;48.626;8.978;2022-08-19T09:29:46;19.70;99.90
27026;DHT22;14565;48.626;8.978;2022-08-19T09:32:14;19.70;99.90
27026;DHT22;14565;48.626;8.978;2022-08-19T09:34:40;19.70;99.90
27026;DHT22;14565;48.626;8.978;2022-08-19T09:37:07;19.80;99.90
27026;DHT22;14565;48.626;8.978;2022-08-19T09:39:32;19.90;99.90
27026;DHT22;14565;48.626;8.978;2022-08-19T09:41:58;19.80;99.90
27026;DHT22;14565;48.626;8.978;2022-08-19T09:44:24;20.00;99.90
27026;DHT22;14565;48.626;8.978;2022-08-19T09:46:49;19.80;99.90
27026;DHT22;14565;48.626;8.978;2022-08-19T09:49:18;19.80;99.90
27026;DHT22;14565;48.626;8.978;2022-08-19T09:51:44;19.70;99.90
27026;DHT22;14565;48.626;8.978;2022-08-19T09:54:11;19.80;99.90
27026;DHT22;14565;48.626;8.978;2022-08-19T09:56:36;19.70;99.90
27026;DHT22;14565;48.626;8.978;2022-08-19T09:59:03;19.80;99.90
27026;DHT22;14565;48.626;8.978;2022-08-19T10:01:31;19.90;99.90
27026;DHT22;14565;48.626;8.978;2022-08-19T10:03:58;19.80;99.90
27026;DHT22;14565;48.626;8.978;2022-08-19T10:06:26;19.80;99.90
27026;DHT22;14565;48.626;8.978;2022-08-19T10:08:55;19.90;99.90
27026;DHT22;14565;48.626;8.978;2022-08-19T10:11:22;20.00;99.90
27026;DHT22;14565;48.626;8.978;2022-08-19T10:13:47;19.90;99.90
27026;DHT22;14565;48.626;8.978;2022-08-19T10:16:17;19.80;99.90
27026;DHT22;14565;48.626;8.978;2022-08-19T10:18:45;19.90;99.90
27026;DHT22;14565;48.626;8.978;2022-08-19T10:21:26;20.00;99.90
27026;DHT22;14565;48.626;8.978;2022-08-19T10:23:55;20.00;99.90
27026;DHT22;14565;48.626;8.978;2022-08-19T10:26:26;19.90;99.90
27026;DHT22;14565;48.626;8.978;2022-08-19T10:28:53;19.90;99.90
27026;DHT22;14565;48.626;8.978;2022-08-19T10:31:22;19.90;99.90
27026;DHT22;14565;48.626;8.978;2022-08-19T10:33:49;20.10;99.90
27026;DHT22;14565;48.626;8.978;2022-08-19T10:36:18;20.20;99.90
27026;DHT22;14565;48.626;8.978;2022-08-19T10:38:46;20.20;99.90
27026;DHT22;14565;48.626;8.978;2022-08-19T10:41:14;20.30;99.90
27026;DHT22;14565;48.626;8.978;2022-08-19T10:43:41;20.40;99.90
27026;DHT22;14565;48.626;8.978;2022-08-19T10:46:09;20.40;99.90
27026;DHT22;14565;48.626;8.978;2022-08-19T10:48:35;20.50;99.90
27026;DHT22;14565;48.626;8.978;2022-08-19T10:51:01;20.40;99.90
27026;DHT22;14565;48.626;8.978;2022-08-19T10:53:46;20.60;99.90
27026;DHT22;14565;48.626;8.978;2022-08-19T10:56:12;20.60;99.90
27026;DHT22;14565;48.626;8.978;2022-08-19T10:58:56;20.60;99.90
27026;DHT22;14565;48.626;8.978;2022-08-19T11:01:23;20.60;99.90
27026;DHT22;14565;48.626;8.978;2022-08-19T11:03:49;20.70;99.90
27026;DHT22;14565;48.626;8.978;2022-08-19T11:06:15;20.70;99.90
27026;DHT22;14565;48.626;8.978;2022-08-19T11:08:41;20.80;99.90
27026;DHT22;14565;48.626;8.978;2022-08-19T11:11:10;20.70;99.90
27026;DHT22;14565;48.626;8.978;2022-08-19T11:13:39;20.80;99.90
27026;DHT22;14565;48.626;8.978;2022-08-19T11:18:33;20.80;99.90
27026;DHT22;14565;48.626;8.978;2022-08-19T11:21:08;20.90;99.90
27026;DHT22;14565;48.626;8.978;2022-08-19T11:23:35;21.30;99.90
27026;DHT22;14565;48.626;8.978;2022-08-19T11:26:00;21.10;99.90
27026;DHT22;14565;48.626;8.978;2022-08-19T11:28:27;21.20;99.90
27026;DHT22;14565;48.626;8.978;2022-08-19T11:30:52;21.40;99.90
27026;DHT22;14565;48.626;8.978;2022-08-19T11:33:18;21.30;99.90
27026;DHT22;14565;48.626;8.978;2022-08-19T11:35:44;21.30;99.90
27026;DHT22;14565;48.626;8.978;2022-08-19T11:38:10;21.40;99.90
27026;DHT22;14565;48.626;8.978;2022-08-19T11:40:36;21.30;99.90
27026;DHT22;14565;48.626;8.978;2022-08-19T11:43:03;21.20;99.90
27026;DHT22;14565;48.626;8.978;2022-08-19T11:45:30;21.30;99.90
27026;DHT22;14565;48.626;8.978;2022-08-19T11:47:57;21.50;99.90
27026;DHT22;14565;48.626;8.978;2022-08-19T11:50:23;21.50;99.90
27026;DHT22;14565;48.626;8.978;2022-08-19T11:52:50;21.40;99.90
27026;DHT22;14565;48.626;8.978;2022-08-19T11:55:16;21.20;99.90
27026;DHT22;14565;48.626;8.978;2022-08-19T11:57:42;21.20;99.90
27026;DHT22;14565;48.626;8.978;2022-08-19T12:00:09;21.20;99.90
27026;DHT22;14565;48.626;8.978;2022-08-19T12:02:37;21.10;99.90
27026;DHT22;14565;48.626;8.978;2022-08-19T12:05:03;21.20;99.90
27026;DHT22;14565;48.626;8.978;2022-08-19T12:07:29;21.30;99.90
27026;DHT22;14565;48.626;8.978;2022-08-19T12:09:56;21.40;99.90
27026;DHT22;14565;48.626;8.978;2022-08-19T12:12:22;21.30;99.90
27026;DHT22;14565;48.626;8.978;2022-08-19T12:14:50;21.40;99.90
27026;DHT22;14565;48.626;8.978;2022-08-19T12:17:22;21.50;99.90
27026;DHT22;14565;48.626;8.978;2022-08-19T12:19:48;21.60;99.90
27026;DHT22;14565;48.626;8.978;2022-08-19T12:22:14;21.50;99.90
27026;DHT22;14565;48.626;8.978;2022-08-19T12:24:39;21.50;99.90
27026;DHT22;14565;48.626;8.978;2022-08-19T12:27:05;21.60;99.90
27026;DHT22;14565;48.626;8.978;2022-08-19T12:29:31;21.60;99.90
27026;DHT22;14565;48.626;8.978;2022-08-19T12:31:58;21.70;99.90
27026;DHT22;14565;48.626;8.978;2022-08-19T12:34:30;22.00;99.90
27026;DHT22;14565;48.626;8.978;2022-08-19T12:36:58;22.30;99.90
27026;DHT22;14565;48.626;8.978;2022-08-19T12:39:25;22.30;99.90
27026;DHT22;14565;48.626;8.978;2022-08-19T12:41:51;22.80;99.90
27026;DHT22;14565;48.626;8.978;2022-08-19T12:44:17;22.80;99.90
27026;DHT22;14565;48.626;8.978;2022-08-19T12:46:42;23.10;99.90
27026;DHT22;14565;48.626;8.978;2022-08-19T12:49:08;23.30;99.90
27026;DHT22;14565;48.626;8.978;2022-08-19T12:51:33;23.10;99.90
27026;DHT22;14565;48.626;8.978;2022-08-19T12:53:59;22.90;99.90
27026;DHT22;14565;48.626;8.978;2022-08-19T12:56:26;22.80;99.90
27026;DHT22;14565;48.626;8.978;2022-08-19T12:58:52;22.80;99.90
27026;DHT22;14565;48.626;8.978;2022-08-19T13:01:19;22.60;99.90
27026;DHT22;14565;48.626;8.978;2022-08-19T13:03:46;22.60;99.90
27026;DHT22;14565;48.626;8.978;2022-08-19T13:06:12;22.50;99.90
27026;DHT22;14565;48.626;8.978;2022-08-19T13:08:38;22.50;99.90
27026;DHT22;14565;48.626;8.978;2022-08-19T13:11:13;22.60;99.90
27026;DHT22;14565;48.626;8.978;2022-08-19T13:13:41;22.70;99.90
27026;DHT22;14565;48.626;8.978;2022-08-19T13:16:09;22.90;99.90
27026;DHT22;14565;48.626;8.978;2022-08-19T13:18:36;22.90;99.90
27026;DHT22;14565;48.626;8.978;2022-08-19T13:21:08;23.10;99.90
27026;DHT22;14565;48.626;8.978;2022-08-19T13:23:35;23.20;99.90
27026;DHT22;14565;48.626;8.978;2022-08-19T13:26:03;23.20;99.90
27026;DHT22;14565;48.626;8.978;2022-08-19T13:28:30;23.30;99.90
27026;DHT22;14565;48.626;8.978;2022-08-19T13:31:21;23.40;99.90
27026;DHT22;14565;48.626;8.978;2022-08-19T13:34:06;23.40;99.90
27026;DHT22;14565;48.626;8.978;2022-08-19T13:36:33;23.30;99.90
27026;DHT22;14565;48.626;8.978;2022-08-19T13:38:59;23.40;99.90
27026;DHT22;14565;48.626;8.978;2022-08-19T13:41:25;23.30;99.90
27026;DHT22;14565;48.626;8.978;2022-08-19T13:43:52;23.30;99.90
27026;DHT22;14565;48.626;8.978;2022-08-19T13:46:17;23.40;99.90
27026;DHT22;14565;48.626;8.978;2022-08-19T13:48:45;23.40;99.90
27026;DHT22;14565;48.626;8.978;2022-08-19T13:51:11;23.30;99.90
27026;DHT22;14565;48.626;8.978;2022-08-19T13:53:38;23.30;99.90
27026;DHT22;14565;48.626;8.978;2022-08-19T13:56:09;23.40;99.90
27026;DHT22;14565;48.626;8.978;2022-08-19T13:58:35;23.30;99.90
27026;DHT22;14565;48.626;8.978;2022-08-19T14:01:02;23.20;99.90
27026;DHT22;14565;48.626;8.978;2022-08-19T14:03:28;23.30;99.90
27026;DHT22;14565;48.626;8.978;2022-08-19T14:05:54;23.30;99.90
27026;DHT22;14565;48.626;8.978;2022-08-19T14:08:19;23.50;99.90
27026;DHT22;14565;48.626;8.978;2022-08-19T14:10:45;23.50;99.90
27026;DHT22;14565;48.626;8.978;2022-08-19T14:13:15;23.70;99.90
27026;DHT22;14565;48.626;8.978;2022-08-19T14:15:41;23.70;99.90
27026;DHT22;14565;48.626;8.978;2022-08-19T14:18:07;23.70;99.90
27026;DHT22;14565;48.626;8.978;2022-08-19T14:20:38;23.90;99.90
27026;DHT22;14565;48.626;8.978;2022-08-19T14:23:04;23.60;99.90
27026;DHT22;14565;48.626;8.978;2022-08-19T14:25:33;23.80;99.90
27026;DHT22;14565;48.626;8.978;2022-08-19T14:27:59;24.20;99.90
27026;DHT22;14565;48.626;8.978;2022-08-19T14:30:28;24.20;99.90
27026;DHT22;14565;48.626;8.978;2022-08-19T14:32:55;24.40;99.90
27026;DHT22;14565;48.626;8.978;2022-08-19T14:35:22;23.90;99.90
27026;DHT22;14565;48.626;8.978;2022-08-19T14:37:49;23.80;99.90
27026;DHT22;14565;48.626;8.978;2022-08-19T14:40:17;23.60;99.90
27026;DHT22;14565;48.626;8.978;2022-08-19T14:42:45;23.20;99.90
27026;DHT22;14565;48.626;8.978;2022-08-19T14:45:12;23.30;99.90
27026;DHT22;14565;48.626;8.978;2022-08-19T14:47:38;23.10;99.90
27026;DHT22;14565;48.626;8.978;2022-08-19T14:50:07;23.00;99.90
27026;DHT22;14565;48.626;8.978;2022-08-19T14:52:33;23.00;99.90
27026;DHT22;14565;48.626;8.978;2022-08-19T14:54:59;23.10;99.90
27026;DHT22;14565;48.626;8.978;2022-08-19T14:57:25;23.30;99.90
27026;DHT22;14565;48.626;8.978;2022-08-19T14:59:50;23.40;99.90
27026;DHT22;14565;48.626;8.978;2022-08-19T15:02:16;23.50;99.90
27026;DHT22;14565;48.626;8.978;2022-08-19T15:04:42;23.60;99.90
27026;DHT22;14565;48.626;8.978;2022-08-19T15:07:09;23.50;99.90
27026;DHT22;14565;48.626;8.978;2022-08-19T15:09:35;23.40;99.90
27026;DHT22;14565;48.626;8.978;2022-08-19T15:12:01;23.60;99.90
27026;DHT22;14565;48.626;8.978;2022-08-19T15:14:28;23.70;99.90
27026;DHT22;14565;48.626;8.978;2022-08-19T15:17:04;23.80;99.90
27026;DHT22;14565;48.626;8.978;2022-08-19T15:19:31;23.80;99.90
27026;DHT22;14565;48.626;8.978;2022-08-19T15:21:58;23.90;99.90
27026;DHT22;14565;48.626;8.978;2022-08-19T15:24:24;23.90;99.90
27026;DHT22;14565;48.626;8.978;2022-08-19T15:26:52;23.80;99.90
27026;DHT22;14565;48.626;8.978;2022-08-19T15:29:18;23.90;99.90
27026;DHT22;14565;48.626;8.978;2022-08-19T15:31:44;24.10;99.90
27026;DHT22;14565;48.626;8.978;2022-08-19T15:34:11;24.30;99.90
27026;DHT22;14565;48.626;8.978;2022-08-19T15:36:37;24.20;99.90
27026;DHT22;14565;48.626;8.978;2022-08-19T15:39:03;24.60;99.90
27026;DHT22;14565;48.626;8.978;2022-08-19T15:41:30;24.40;99.90
27026;DHT22;14565;48.626;8.978;2022-08-19T15:43:59;24.40;99.90